sensor_id;sensor_type;location;lat;lon;timestamp;noise_LAeq;noise_LA_min;noise_LA_max;noise_LA01;noise_LA95
67324;Laerm;57667;51.438;5.968;2023-06-24T00:00:07;46.61;44.81;51.57;;
67324;Laerm;57667;51.438;5.968;2023-06-24T00:00:21;46.40;44.43;48.30;;
67324;Laerm;57667;51.438;5.968;2023-06-24T00:00:31;46.39;44.49;49.37;;
67324;Laerm;57667;51.438;5.968;2023-06-24T00:00:41;46.29;44.91;48.70;;
67324;Laerm;57667;51.438;5.968;2023-06-24T00:00:52;46.44;44.31;48.63;;
67324;Laerm;57667;51.438;5.968;2023-06-24T00:01:03;46.37;44.86;48.07;;
67324;Laerm;57667;51.438;5.968;2023-06-24T00:01:13;46.52;44.60;49.57;;
67324;Laerm;57667;51.438;5.968;2023-06-24T00:01:24;46.31;44.55;48.57;;
67324;Laerm;57667;51.438;5.968;2023-06-24T00:01:34;46.15;44.39;49.31;;
67324;Laerm;57667;51.438;5.968;2023-06-24T00:01:45;46.07;44.13;48.08;;
67324;Laerm;57667;51.438;5.968;2023-06-24T00:01:55;46.17;44.17;50.55;;
67324;Laerm;57667;51.438;5.968;2023-06-24T00:02:05;46.22;43.58;48.36;;
67324;Laerm;57667;51.438;5.968;2023-06-24T00:02:16;46.17;44.71;48.92;;
67324;Laerm;57667;51.438;5.968;2023-06-24T00:02:26;46.22;44.55;49.54;;
67324;Laerm;57667;51.438;5.968;2023-06-24T00:02:38;46.18;44.48;50.75;;
67324;Laerm;57667;51.438;5.968;2023-06-24T00:02:51;46.14;44.41;48.33;;
67324;Laerm;57667;51.438;5.968;2023-06-24T00:03:03;46.15;43.98;48.64;;
67324;Laerm;57667;51.438;5.968;2023-06-24T00:03:17;46.06;44.17;47.95;;
67324;Laerm;57667;51.438;5.968;2023-06-24T00:03:27;46.10;44.28;49.38;;
67324;Laerm;57667;51.438;5.968;2023-06-24T00:03:37;46.09;44.15;48.47;;
67324;Laerm;57667;51.438;5.968;2023-06-24T00:03:48;46.28;44.60;49.86;;
67324;Laerm;57667;51.438;5.968;2023-06-24T00:03:58;46.18;44.50;48.58;;
67324;Laerm;57667;51.438;5.968;2023-06-24T00:04:08;46.20;44.41;48.36;;
67324;Laerm;57667;51.438;5.968;2023-06-24T00:04:19;46.19;44.73;47.91;;
67324;Laerm;57667;51.438;5.968;2023-06-24T00:04:30;46.20;44.54;49.52;;
67324;Laerm;57667;51.438;5.968;2023-06-24T00:04:41;46.30;44.85;47.89;;
67324;Laerm;57667;51.438;5.968;2023-06-24T00:04:51;47.08;45.44;49.34;;
67324;Laerm;57667;51.438;5.968;2023-06-24T00:05:02;46.83;45.27;49.30;;
67324;Laerm;57667;51.438;5.968;2023-06-24T00:05:13;46.39;44.17;50.55;;
67324;Laerm;57667;51.438;5.968;2023-06-24T00:05:24;46.53;44.59;48.36;;
67324;Laerm;57667;51.438;5.968;2023-06-24T00:05:34;46.65;45.13;49.85;;
67324;Laerm;57667;51.438;5.968;2023-06-24T00:05:44;46.29;44.33;48.39;;
67324;Laerm;57667;51.438;5.968;2023-06-24T00:05:59;46.22;44.06;49.58;;
67324;Laerm;57667;51.438;5.968;2023-06-24T00:06:13;46.20;44.01;49.74;;
67324;Laerm;57667;51.438;5.968;2023-06-24T00:06:28;46.19;44.22;49.17;;
67324;Laerm;57667;51.438;5.968;2023-06-24T00:06:38;45.89;44.22;48.23;;
67324;Laerm;57667;51.438;5.968;2023-06-24T00:06:49;45.82;44.31;47.53;;
67324;Laerm;57667;51.438;5.968;2023-06-24T00:07:02;45.88;44.17;47.54;;
67324;Laerm;57667;51.438;5.968;2023-06-24T00:07:12;45.83;43.34;47.67;;
67324;Laerm;57667;51.438;5.968;2023-06-24T00:07:23;45.98;44.35;48.46;;
67324;Laerm;57667;51.438;5.968;2023-06-24T00:07:33;46.01;44.14;49.58;;
67324;Laerm;57667;51.438;5.968;2023-06-24T00:07:46;45.94;43.73;48.66;;
67324;Laerm;57667;51.438;5.968;2023-06-24T00:07:57;45.83;44.21;48.60;;
67324;Laerm;57667;51.438;5.968;2023-06-24T00:08:07;45.97;44.10;49.90;;
67324;Laerm;57667;51.438;5.968;2023-06-24T00:08:18;45.97;44.03;48.27;;
67324;Laerm;57667;51.438;5.968;2023-06-24T00:08:32;46.04;43.95;49.40;;
67324;Laerm;57667;51.438;5.968;2023-06-24T00:08:49;45.68;43.58;50.63;;
67324;Laerm;57667;51.438;5.968;2023-06-24T00:09:00;45.83;43.82;47.84;;
67324;Laerm;57667;51.438;5.968;2023-06-24T00:09:10;45.79;44.20;48.39;;
67324;Laerm;57667;51.438;5.968;2023-06-24T00:09:20;45.92;43.99;49.07;;
67324;Laerm;57667;51.438;5.968;2023-06-24T00:09:31;45.90;43.59;48.24;;
67324;Laerm;57667;51.438;5.968;2023-06-24T00:09:41;46.01;43.86;48.09;;
67324;Laerm;57667;51.438;5.968;2023-06-24T00:09:51;45.96;44.40;47.99;;
67324;Laerm;57667;51.438;5.968;2023-06-24T00:10:02;45.97;44.31;48.29;;
67324;Laerm;57667;51.438;5.968;2023-06-24T00:10:14;45.91;43.91;47.49;;
67324;Laerm;57667;51.438;5.968;2023-06-24T00:10:24;45.93;44.11;47.51;;
67324;Laerm;57667;51.438;5.968;2023-06-24T00:10:35;45.92;43.40;47.69;;
67324;Laerm;57667;51.438;5.968;2023-06-24T00:10:46;45.83;44.17;48.17;;
67324;Laerm;57667;51.438;5.968;2023-06-24T00:10:56;45.72;44.33;47.37;;
67324;Laerm;57667;51.438;5.968;2023-06-24T00:11:07;45.83;44.13;48.08;;
67324;Laerm;57667;51.438;5.968;2023-06-24T00:11:17;46.06;44.09;51.99;;
67324;Laerm;57667;51.438;5.968;2023-06-24T00:11:28;46.06;44.28;52.80;;
67324;Laerm;57667;51.438;5.968;2023-06-24T00:11:39;45.78;43.64;48.45;;
67324;Laerm;57667;51.438;5.968;2023-06-24T00:11:49;45.75;44.17;47.90;;
67324;Laerm;57667;51.438;5.968;2023-06-24T00:12:00;45.70;44.08;48.52;;
67324;Laerm;57667;51.438;5.968;2023-06-24T00:12:10;45.66;44.09;48.05;;
67324;Laerm;57667;51.438;5.968;2023-06-24T00:12:20;45.74;43.65;48.55;;
67324;Laerm;57667;51.438;5.968;2023-06-24T00:12:31;45.65;43.99;49.39;;
67324;Laerm;57667;51.438;5.968;2023-06-24T00:12:43;45.67;43.62;47.79;;
67324;Laerm;57667;51.438;5.968;2023-06-24T00:12:53;45.79;44.06;52.82;;
67324;Laerm;57667;51.438;5.968;2023-06-24T00:13:03;45.86;43.92;51.97;;
67324;Laerm;57667;51.438;5.968;2023-06-24T00:13:16;45.52;43.80;47.37;;
67324;Laerm;57667;51.438;5.968;2023-06-24T00:13:27;45.64;43.46;49.45;;
67324;Laerm;57667;51.438;5.968;2023-06-24T00:13:39;45.81;44.16;50.14;;
67324;Laerm;57667;51.438;5.968;2023-06-24T00:13:49;45.68;44.21;49.29;;
67324;Laerm;57667;51.438;5.968;2023-06-24T00:14:00;45.66;44.06;48.91;;
67324;Laerm;57667;51.438;5.968;2023-06-24T00:14:10;45.58;43.93;47.62;;
67324;Laerm;57667;51.438;5.968;2023-06-24T00:14:21;45.63;43.55;49.33;;
67324;Laerm;57667;51.438;5.968;2023-06-24T00:14:33;46.01;43.87;50.53;;
67324;Laerm;57667;51.438;5.968;2023-06-24T00:14:46;45.71;43.76;47.97;;
67324;Laerm;57667;51.438;5.968;2023-06-24T00:14:57;46.26;44.42;49.24;;
67324;Laerm;57667;51.438;5.968;2023-06-24T00:15:08;46.19;44.24;47.96;;
67324;Laerm;57667;51.438;5.968;2023-06-24T00:15:21;45.89;43.45;49.02;;
67324;Laerm;57667;51.438;5.968;2023-06-24T00:15:32;45.80;43.85;48.75;;
67324;Laerm;57667;51.438;5.968;2023-06-24T00:15:42;45.70;43.92;48.71;;
67324;Laerm;57667;51.438;5.968;2023-06-24T00:15:52;45.60;43.37;47.38;;
67324;Laerm;57667;51.438;5.968;2023-06-24T00:16:03;45.56;43.98;51.10;;
67324;Laerm;57667;51.438;5.968;2023-06-24T00:16:13;45.61;43.95;47.24;;
67324;Laerm;57667;51.438;5.968;2023-06-24T00:16:24;45.65;43.62;49.55;;
67324;Laerm;57667;51.438;5.968;2023-06-24T00:16:37;45.47;43.77;47.85;;
67324;Laerm;57667;51.438;5.968;2023-06-24T00:16:47;45.78;44.11;48.34;;
67324;Laerm;57667;51.438;5.968;2023-06-24T00:17:01;48.21;44.41;54.87;;
67324;Laerm;57667;51.438;5.968;2023-06-24T00:17:11;64.31;54.53;66.69;;
67324;Laerm;57667;51.438;5.968;2023-06-24T00:17:22;65.62;63.02;69.07;;
67324;Laerm;57667;51.438;5.968;2023-06-24T00:17:32;62.95;44.96;67.07;;
67324;Laerm;57667;51.438;5.968;2023-06-24T00:17:42;45.95;43.74;50.33;;
67324;Laerm;57667;51.438;5.968;2023-06-24T00:17:52;45.67;43.87;48.39;;
67324;Laerm;57667;51.438;5.968;2023-06-24T00:18:03;46.02;44.17;55.06;;
67324;Laerm;57667;51.438;5.968;2023-06-24T00:18:16;45.66;43.56;49.30;;
67324;Laerm;57667;51.438;5.968;2023-06-24T00:18:26;45.82;44.12;48.76;;
67324;Laerm;57667;51.438;5.968;2023-06-24T00:18:39;45.81;43.70;49.02;;
67324;Laerm;57667;51.438;5.968;2023-06-24T00:18:51;45.75;44.23;48.52;;
67324;Laerm;57667;51.438;5.968;2023-06-24T00:19:03;45.39;43.24;47.56;;
67324;Laerm;57667;51.438;5.968;2023-06-24T00:19:13;45.38;43.81;48.88;;
67324;Laerm;57667;51.438;5.968;2023-06-24T00:19:24;45.38;43.60;47.92;;
67324;Laerm;57667;51.438;5.968;2023-06-24T00:19:34;45.48;43.56;48.46;;
67324;Laerm;57667;51.438;5.968;2023-06-24T00:19:45;45.51;43.89;48.74;;
67324;Laerm;57667;51.438;5.968;2023-06-24T00:19:55;45.58;43.71;48.16;;
67324;Laerm;57667;51.438;5.968;2023-06-24T00:20:06;45.43;43.23;48.01;;
67324;Laerm;57667;51.438;5.968;2023-06-24T00:20:19;45.32;43.53;47.64;;
67324;Laerm;57667;51.438;5.968;2023-06-24T00:20:30;45.44;43.72;48.17;;
67324;Laerm;57667;51.438;5.968;2023-06-24T00:20:40;45.41;43.55;47.41;;
67324;Laerm;57667;51.438;5.968;2023-06-24T00:20:53;45.34;43.48;48.34;;
67324;Laerm;57667;51.438;5.968;2023-06-24T00:21:03;45.35;43.79;48.27;;
67324;Laerm;57667;51.438;5.968;2023-06-24T00:21:14;45.42;43.63;48.94;;
67324;Laerm;57667;51.438;5.968;2023-06-24T00:21:27;45.46;43.66;47.58;;
67324;Laerm;57667;51.438;5.968;2023-06-24T00:21:41;45.49;43.64;49.37;;
67324;Laerm;57667;51.438;5.968;2023-06-24T00:21:52;45.49;43.14;51.37;;
67324;Laerm;57667;51.438;5.968;2023-06-24T00:22:02;45.54;43.43;51.47;;
67324;Laerm;57667;51.438;5.968;2023-06-24T00:22:13;45.70;43.87;50.42;;
67324;Laerm;57667;51.438;5.968;2023-06-24T00:22:24;45.55;43.40;48.10;;
67324;Laerm;57667;51.438;5.968;2023-06-24T00:22:34;45.54;42.92;47.99;;
67324;Laerm;57667;51.438;5.968;2023-06-24T00:22:44;45.40;43.49;47.03;;
67324;Laerm;57667;51.438;5.968;2023-06-24T00:22:58;45.49;43.03;47.82;;
67324;Laerm;57667;51.438;5.968;2023-06-24T00:23:09;45.54;43.82;48.17;;
67324;Laerm;57667;51.438;5.968;2023-06-24T00:23:21;45.60;43.90;49.57;;
67324;Laerm;57667;51.438;5.968;2023-06-24T00:23:34;45.58;43.50;48.02;;
67324;Laerm;57667;51.438;5.968;2023-06-24T00:23:45;45.65;43.81;48.19;;
67324;Laerm;57667;51.438;5.968;2023-06-24T00:23:56;46.03;44.27;52.56;;
67324;Laerm;57667;51.438;5.968;2023-06-24T00:24:06;45.59;43.71;48.43;;
67324;Laerm;57667;51.438;5.968;2023-06-24T00:24:17;45.79;44.12;48.24;;
67324;Laerm;57667;51.438;5.968;2023-06-24T00:24:29;45.78;43.95;47.55;;
67324;Laerm;57667;51.438;5.968;2023-06-24T00:24:39;45.64;43.84;47.38;;
67324;Laerm;57667;51.438;5.968;2023-06-24T00:24:52;45.69;43.76;47.43;;
67324;Laerm;57667;51.438;5.968;2023-06-24T00:25:03;45.69;43.80;48.14;;
67324;Laerm;57667;51.438;5.968;2023-06-24T00:25:15;45.84;44.01;48.18;;
67324;Laerm;57667;51.438;5.968;2023-06-24T00:25:25;46.24;44.20;55.79;;
67324;Laerm;57667;51.438;5.968;2023-06-24T00:25:36;45.81;43.96;47.96;;
67324;Laerm;57667;51.438;5.968;2023-06-24T00:25:46;46.03;44.33;49.65;;
67324;Laerm;57667;51.438;5.968;2023-06-24T00:25:56;45.88;44.09;51.88;;
67324;Laerm;57667;51.438;5.968;2023-06-24T00:26:07;45.88;43.67;51.73;;
67324;Laerm;57667;51.438;5.968;2023-06-24T00:26:17;45.75;43.88;48.58;;
67324;Laerm;57667;51.438;5.968;2023-06-24T00:26:28;46.00;43.82;50.00;;
67324;Laerm;57667;51.438;5.968;2023-06-24T00:26:38;45.90;44.47;51.56;;
67324;Laerm;57667;51.438;5.968;2023-06-24T00:26:48;45.96;43.98;47.91;;
67324;Laerm;57667;51.438;5.968;2023-06-24T00:26:59;45.91;44.16;52.01;;
67324;Laerm;57667;51.438;5.968;2023-06-24T00:27:09;45.98;44.18;50.20;;
67324;Laerm;57667;51.438;5.968;2023-06-24T00:27:19;46.16;44.34;48.71;;
67324;Laerm;57667;51.438;5.968;2023-06-24T00:27:30;46.10;44.36;49.80;;
67324;Laerm;57667;51.438;5.968;2023-06-24T00:27:41;46.27;44.31;48.75;;
67324;Laerm;57667;51.438;5.968;2023-06-24T00:27:51;46.29;44.68;48.91;;
67324;Laerm;57667;51.438;5.968;2023-06-24T00:28:02;45.91;44.35;47.58;;
67324;Laerm;57667;51.438;5.968;2023-06-24T00:28:12;45.90;44.28;47.97;;
67324;Laerm;57667;51.438;5.968;2023-06-24T00:28:22;45.97;44.37;48.10;;
67324;Laerm;57667;51.438;5.968;2023-06-24T00:28:33;46.30;44.58;50.36;;
67324;Laerm;57667;51.438;5.968;2023-06-24T00:28:43;45.92;43.91;50.53;;
67324;Laerm;57667;51.438;5.968;2023-06-24T00:28:54;46.13;44.60;48.69;;
67324;Laerm;57667;51.438;5.968;2023-06-24T00:29:04;46.01;44.13;47.59;;
67324;Laerm;57667;51.438;5.968;2023-06-24T00:29:14;46.01;44.35;48.19;;
67324;Laerm;57667;51.438;5.968;2023-06-24T00:29:25;45.97;42.98;53.63;;
67324;Laerm;57667;51.438;5.968;2023-06-24T00:29:35;45.94;44.30;48.54;;
67324;Laerm;57667;51.438;5.968;2023-06-24T00:29:46;45.81;44.01;49.89;;
67324;Laerm;57667;51.438;5.968;2023-06-24T00:29:56;45.91;44.09;48.55;;
67324;Laerm;57667;51.438;5.968;2023-06-24T00:30:06;45.90;43.95;48.39;;
67324;Laerm;57667;51.438;5.968;2023-06-24T00:30:17;45.94;44.08;48.62;;
67324;Laerm;57667;51.438;5.968;2023-06-24T00:30:27;46.06;44.31;48.98;;
67324;Laerm;57667;51.438;5.968;2023-06-24T00:30:37;45.95;43.96;52.18;;
67324;Laerm;57667;51.438;5.968;2023-06-24T00:30:48;45.87;44.37;48.28;;
67324;Laerm;57667;51.438;5.968;2023-06-24T00:30:58;45.84;44.38;47.74;;
67324;Laerm;57667;51.438;5.968;2023-06-24T00:31:09;45.88;44.20;48.02;;
67324;Laerm;57667;51.438;5.968;2023-06-24T00:31:21;46.02;44.03;49.09;;
67324;Laerm;57667;51.438;5.968;2023-06-24T00:31:31;46.14;44.16;49.52;;
67324;Laerm;57667;51.438;5.968;2023-06-24T00:31:42;46.04;44.14;52.33;;
67324;Laerm;57667;51.438;5.968;2023-06-24T00:31:52;45.93;44.04;48.19;;
67324;Laerm;57667;51.438;5.968;2023-06-24T00:32:02;45.88;44.34;47.83;;
67324;Laerm;57667;51.438;5.968;2023-06-24T00:32:13;45.97;44.16;52.28;;
67324;Laerm;57667;51.438;5.968;2023-06-24T00:32:23;45.83;44.10;50.09;;
67324;Laerm;57667;51.438;5.968;2023-06-24T00:32:33;45.74;43.95;48.84;;
67324;Laerm;57667;51.438;5.968;2023-06-24T00:32:44;45.69;43.68;48.85;;
67324;Laerm;57667;51.438;5.968;2023-06-24T00:32:54;45.78;43.97;51.16;;
67324;Laerm;57667;51.438;5.968;2023-06-24T00:33:04;45.74;43.95;49.91;;
67324;Laerm;57667;51.438;5.968;2023-06-24T00:33:21;45.62;43.54;48.95;;
67324;Laerm;57667;51.438;5.968;2023-06-24T00:33:32;45.57;43.81;49.11;;
67324;Laerm;57667;51.438;5.968;2023-06-24T00:33:46;45.63;43.66;48.23;;
67324;Laerm;57667;51.438;5.968;2023-06-24T00:33:56;45.60;43.86;49.99;;
67324;Laerm;57667;51.438;5.968;2023-06-24T00:34:07;45.48;43.92;48.84;;
67324;Laerm;57667;51.438;5.968;2023-06-24T00:34:17;45.46;43.26;47.83;;
67324;Laerm;57667;51.438;5.968;2023-06-24T00:34:30;45.59;43.97;49.90;;
67324;Laerm;57667;51.438;5.968;2023-06-24T00:34:40;45.64;43.60;48.76;;
67324;Laerm;57667;51.438;5.968;2023-06-24T00:34:53;45.66;43.71;48.83;;
67324;Laerm;57667;51.438;5.968;2023-06-24T00:35:08;45.55;43.61;47.69;;
67324;Laerm;57667;51.438;5.968;2023-06-24T00:35:18;45.43;43.50;47.24;;
67324;Laerm;57667;51.438;5.968;2023-06-24T00:35:28;45.71;43.90;48.44;;
67324;Laerm;57667;51.438;5.968;2023-06-24T00:35:39;46.48;43.89;50.99;;
67324;Laerm;57667;51.438;5.968;2023-06-24T00:35:50;47.20;44.58;50.79;;
67324;Laerm;57667;51.438;5.968;2023-06-24T00:36:00;45.94;44.22;49.29;;
67324;Laerm;57667;51.438;5.968;2023-06-24T00:36:10;45.96;44.22;52.04;;
67324;Laerm;57667;51.438;5.968;2023-06-24T00:36:21;45.66;43.61;47.76;;
67324;Laerm;57667;51.438;5.968;2023-06-24T00:36:32;45.86;43.92;47.97;;
67324;Laerm;57667;51.438;5.968;2023-06-24T00:36:42;45.78;44.29;48.38;;
67324;Laerm;57667;51.438;5.968;2023-06-24T00:36:54;45.81;44.02;49.40;;
67324;Laerm;57667;51.438;5.968;2023-06-24T00:37:04;45.87;43.92;50.26;;
67324;Laerm;57667;51.438;5.968;2023-06-24T00:37:15;45.85;43.83;49.29;;
67324;Laerm;57667;51.438;5.968;2023-06-24T00:37:25;45.88;44.18;47.75;;
67324;Laerm;57667;51.438;5.968;2023-06-24T00:37:35;45.89;44.15;49.29;;
67324;Laerm;57667;51.438;5.968;2023-06-24T00:37:46;45.84;43.78;47.99;;
67324;Laerm;57667;51.438;5.968;2023-06-24T00:37:57;45.74;43.90;49.35;;
67324;Laerm;57667;51.438;5.968;2023-06-24T00:38:08;46.05;44.26;52.30;;
67324;Laerm;57667;51.438;5.968;2023-06-24T00:38:18;45.93;44.23;49.44;;
67324;Laerm;57667;51.438;5.968;2023-06-24T00:38:28;46.15;44.60;49.15;;
67324;Laerm;57667;51.438;5.968;2023-06-24T00:38:42;45.97;44.09;47.91;;
67324;Laerm;57667;51.438;5.968;2023-06-24T00:38:52;46.12;44.25;48.93;;
67324;Laerm;57667;51.438;5.968;2023-06-24T00:39:03;45.89;44.04;47.70;;
67324;Laerm;57667;51.438;5.968;2023-06-24T00:39:13;45.85;43.10;47.65;;
67324;Laerm;57667;51.438;5.968;2023-06-24T00:39:24;46.07;44.67;49.05;;
67324;Laerm;57667;51.438;5.968;2023-06-24T00:39:34;45.98;44.23;47.99;;
67324;Laerm;57667;51.438;5.968;2023-06-24T00:39:44;46.10;44.48;49.56;;
67324;Laerm;57667;51.438;5.968;2023-06-24T00:39:55;45.92;43.96;47.75;;
67324;Laerm;57667;51.438;5.968;2023-06-24T00:40:05;45.93;43.89;47.90;;
67324;Laerm;57667;51.438;5.968;2023-06-24T00:40:16;45.94;44.21;48.23;;
67324;Laerm;57667;51.438;5.968;2023-06-24T00:40:26;46.03;43.89;48.64;;
67324;Laerm;57667;51.438;5.968;2023-06-24T00:40:37;46.11;44.42;50.41;;
67324;Laerm;57667;51.438;5.968;2023-06-24T00:40:48;46.05;44.45;48.45;;
67324;Laerm;57667;51.438;5.968;2023-06-24T00:40:59;46.18;44.40;48.53;;
67324;Laerm;57667;51.438;5.968;2023-06-24T00:41:10;46.31;44.39;48.79;;
67324;Laerm;57667;51.438;5.968;2023-06-24T00:41:20;46.84;44.35;51.80;;
67324;Laerm;57667;51.438;5.968;2023-06-24T00:41:31;49.56;45.87;52.94;;
67324;Laerm;57667;51.438;5.968;2023-06-24T00:41:41;46.98;44.61;49.30;;
67324;Laerm;57667;51.438;5.968;2023-06-24T00:41:52;46.53;44.43;49.41;;
67324;Laerm;57667;51.438;5.968;2023-06-24T00:42:03;46.27;44.17;48.41;;
67324;Laerm;57667;51.438;5.968;2023-06-24T00:42:13;46.22;44.61;48.24;;
67324;Laerm;57667;51.438;5.968;2023-06-24T00:42:23;46.34;44.47;48.94;;
67324;Laerm;57667;51.438;5.968;2023-06-24T00:42:34;46.36;44.66;48.66;;
67324;Laerm;57667;51.438;5.968;2023-06-24T00:42:44;46.31;44.71;48.26;;
67324;Laerm;57667;51.438;5.968;2023-06-24T00:42:55;46.32;44.53;49.85;;
67324;Laerm;57667;51.438;5.968;2023-06-24T00:43:06;46.24;44.16;49.65;;
67324;Laerm;57667;51.438;5.968;2023-06-24T00:43:16;46.38;44.27;49.19;;
67324;Laerm;57667;51.438;5.968;2023-06-24T00:43:26;46.27;43.98;48.04;;
67324;Laerm;57667;51.438;5.968;2023-06-24T00:43:37;46.45;44.45;50.32;;
67324;Laerm;57667;51.438;5.968;2023-06-24T00:43:48;46.35;44.54;48.60;;
67324;Laerm;57667;51.438;5.968;2023-06-24T00:43:59;46.33;44.84;48.03;;
67324;Laerm;57667;51.438;5.968;2023-06-24T00:44:10;46.38;44.40;50.93;;
67324;Laerm;57667;51.438;5.968;2023-06-24T00:44:21;46.49;44.40;53.62;;
67324;Laerm;57667;51.438;5.968;2023-06-24T00:44:32;46.49;44.39;49.53;;
67324;Laerm;57667;51.438;5.968;2023-06-24T00:44:42;46.55;44.34;49.79;;
67324;Laerm;57667;51.438;5.968;2023-06-24T00:44:53;46.50;44.56;49.60;;
67324;Laerm;57667;51.438;5.968;2023-06-24T00:45:03;46.48;44.82;48.41;;
67324;Laerm;57667;51.438;5.968;2023-06-24T00:45:15;46.70;44.80;50.41;;
67324;Laerm;57667;51.438;5.968;2023-06-24T00:45:28;46.64;44.79;48.94;;
67324;Laerm;57667;51.438;5.968;2023-06-24T00:45:40;46.42;44.41;48.13;;
67324;Laerm;57667;51.438;5.968;2023-06-24T00:45:51;46.43;44.49;48.19;;
67324;Laerm;57667;51.438;5.968;2023-06-24T00:46:03;46.66;44.71;48.83;;
67324;Laerm;57667;51.438;5.968;2023-06-24T00:46:13;46.62;44.27;52.01;;
67324;Laerm;57667;51.438;5.968;2023-06-24T00:46:24;46.49;44.77;48.49;;
67324;Laerm;57667;51.438;5.968;2023-06-24T00:46:35;46.54;44.61;52.39;;
67324;Laerm;57667;51.438;5.968;2023-06-24T00:46:45;46.75;44.46;50.46;;
67324;Laerm;57667;51.438;5.968;2023-06-24T00:46:56;46.61;44.77;49.18;;
67324;Laerm;57667;51.438;5.968;2023-06-24T00:47:06;46.70;44.80;48.87;;
67324;Laerm;57667;51.438;5.968;2023-06-24T00:47:18;46.64;44.60;48.13;;
67324;Laerm;57667;51.438;5.968;2023-06-24T00:47:28;46.83;45.18;49.29;;
67324;Laerm;57667;51.438;5.968;2023-06-24T00:47:41;46.76;44.94;52.27;;
67324;Laerm;57667;51.438;5.968;2023-06-24T00:47:51;46.77;44.77;49.86;;
67324;Laerm;57667;51.438;5.968;2023-06-24T00:48:02;46.84;44.63;49.50;;
67324;Laerm;57667;51.438;5.968;2023-06-24T00:48:13;46.74;44.88;48.62;;
67324;Laerm;57667;51.438;5.968;2023-06-24T00:48:24;46.87;45.13;48.52;;
67324;Laerm;57667;51.438;5.968;2023-06-24T00:48:35;46.73;44.58;48.47;;
67324;Laerm;57667;51.438;5.968;2023-06-24T00:48:45;46.83;45.19;50.53;;
67324;Laerm;57667;51.438;5.968;2023-06-24T00:48:56;46.81;44.32;49.03;;
67324;Laerm;57667;51.438;5.968;2023-06-24T00:49:06;46.88;44.93;49.11;;
67324;Laerm;57667;51.438;5.968;2023-06-24T00:49:16;46.77;45.12;49.01;;
67324;Laerm;57667;51.438;5.968;2023-06-24T00:49:27;46.89;45.22;49.10;;
67324;Laerm;57667;51.438;5.968;2023-06-24T00:49:38;46.95;44.11;49.37;;
67324;Laerm;57667;51.438;5.968;2023-06-24T00:49:48;46.87;44.90;49.92;;
67324;Laerm;57667;51.438;5.968;2023-06-24T00:49:58;46.95;45.46;49.38;;
67324;Laerm;57667;51.438;5.968;2023-06-24T00:50:09;46.90;44.71;49.02;;
67324;Laerm;57667;51.438;5.968;2023-06-24T00:50:22;46.91;44.94;51.51;;
67324;Laerm;57667;51.438;5.968;2023-06-24T00:50:32;46.83;45.01;48.55;;
67324;Laerm;57667;51.438;5.968;2023-06-24T00:50:42;46.86;45.30;48.97;;
67324;Laerm;57667;51.438;5.968;2023-06-24T00:50:55;46.87;44.61;49.99;;
67324;Laerm;57667;51.438;5.968;2023-06-24T00:51:08;47.32;45.27;50.41;;
67324;Laerm;57667;51.438;5.968;2023-06-24T00:51:19;71.59;49.20;77.55;;
67324;Laerm;57667;51.438;5.968;2023-06-24T00:51:31;69.62;51.83;77.60;;
67324;Laerm;57667;51.438;5.968;2023-06-24T00:51:42;50.86;46.96;54.18;;
67324;Laerm;57667;51.438;5.968;2023-06-24T00:51:57;48.31;46.53;52.14;;
67324;Laerm;57667;51.438;5.968;2023-06-24T00:52:11;47.17;45.36;49.14;;
67324;Laerm;57667;51.438;5.968;2023-06-24T00:52:25;46.98;45.14;49.84;;
67324;Laerm;57667;51.438;5.968;2023-06-24T00:52:36;46.82;44.69;50.48;;
67324;Laerm;57667;51.438;5.968;2023-06-24T00:52:48;46.73;45.00;48.74;;
67324;Laerm;57667;51.438;5.968;2023-06-24T00:52:59;46.73;45.16;50.06;;
67324;Laerm;57667;51.438;5.968;2023-06-24T00:53:09;46.75;44.94;50.94;;
67324;Laerm;57667;51.438;5.968;2023-06-24T00:53:22;46.80;45.17;52.92;;
67324;Laerm;57667;51.438;5.968;2023-06-24T00:53:34;46.74;44.99;53.37;;
67324;Laerm;57667;51.438;5.968;2023-06-24T00:53:45;46.66;44.85;49.66;;
67324;Laerm;57667;51.438;5.968;2023-06-24T00:53:58;46.76;44.88;49.71;;
67324;Laerm;57667;51.438;5.968;2023-06-24T00:54:09;46.82;44.73;49.06;;
67324;Laerm;57667;51.438;5.968;2023-06-24T00:54:19;46.88;45.37;50.46;;
67324;Laerm;57667;51.438;5.968;2023-06-24T00:54:29;46.80;44.36;49.43;;
67324;Laerm;57667;51.438;5.968;2023-06-24T00:54:44;46.82;45.04;49.00;;
67324;Laerm;57667;51.438;5.968;2023-06-24T00:54:54;46.89;44.94;49.95;;
67324;Laerm;57667;51.438;5.968;2023-06-24T00:55:06;46.83;44.79;48.81;;
67324;Laerm;57667;51.438;5.968;2023-06-24T00:55:16;47.00;45.33;50.48;;
67324;Laerm;57667;51.438;5.968;2023-06-24T00:55:27;47.14;44.87;48.84;;
67324;Laerm;57667;51.438;5.968;2023-06-24T00:55:39;46.93;45.15;50.07;;
67324;Laerm;57667;51.438;5.968;2023-06-24T00:55:49;47.05;45.10;49.40;;
67324;Laerm;57667;51.438;5.968;2023-06-24T00:55:59;47.16;45.47;55.36;;
67324;Laerm;57667;51.438;5.968;2023-06-24T00:56:13;47.16;45.18;51.62;;
67324;Laerm;57667;51.438;5.968;2023-06-24T00:56:34;47.18;45.27;52.20;;
67324;Laerm;57667;51.438;5.968;2023-06-24T00:56:45;46.97;45.21;49.05;;
67324;Laerm;57667;51.438;5.968;2023-06-24T00:56:55;46.91;45.06;49.74;;
67324;Laerm;57667;51.438;5.968;2023-06-24T00:57:06;47.04;44.89;54.34;;
67324;Laerm;57667;51.438;5.968;2023-06-24T00:57:17;46.79;45.20;48.42;;
67324;Laerm;57667;51.438;5.968;2023-06-24T00:57:27;46.81;45.39;49.02;;
67324;Laerm;57667;51.438;5.968;2023-06-24T00:57:39;46.72;44.27;48.70;;
67324;Laerm;57667;51.438;5.968;2023-06-24T00:57:51;46.73;45.15;48.32;;
67324;Laerm;57667;51.438;5.968;2023-06-24T00:58:01;46.71;44.88;49.01;;
67324;Laerm;57667;51.438;5.968;2023-06-24T00:58:12;47.05;44.77;54.46;;
67324;Laerm;57667;51.438;5.968;2023-06-24T00:58:26;46.75;44.89;50.25;;
67324;Laerm;57667;51.438;5.968;2023-06-24T00:58:37;46.81;44.67;49.48;;
67324;Laerm;57667;51.438;5.968;2023-06-24T00:58:49;46.74;44.54;49.55;;
67324;Laerm;57667;51.438;5.968;2023-06-24T00:59:01;46.60;44.33;48.65;;
67324;Laerm;57667;51.438;5.968;2023-06-24T00:59:13;46.54;44.52;48.87;;
67324;Laerm;57667;51.438;5.968;2023-06-24T00:59:24;46.60;44.85;49.35;;
67324;Laerm;57667;51.438;5.968;2023-06-24T00:59:34;46.48;44.47;48.88;;
67324;Laerm;57667;51.438;5.968;2023-06-24T00:59:45;46.45;44.57;51.19;;
67324;Laerm;57667;51.438;5.968;2023-06-24T00:59:57;46.25;43.76;48.21;;
67324;Laerm;57667;51.438;5.968;2023-06-24T01:00:07;46.36;44.09;49.45;;
67324;Laerm;57667;51.438;5.968;2023-06-24T01:00:26;46.59;44.72;49.58;;
67324;Laerm;57667;51.438;5.968;2023-06-24T01:00:36;46.65;44.52;49.70;;
67324;Laerm;57667;51.438;5.968;2023-06-24T01:00:47;46.56;44.76;48.90;;
67324;Laerm;57667;51.438;5.968;2023-06-24T01:01:07;46.60;44.81;49.13;;
67324;Laerm;57667;51.438;5.968;2023-06-24T01:01:18;46.67;44.52;49.27;;
67324;Laerm;57667;51.438;5.968;2023-06-24T01:01:30;46.68;44.20;49.11;;
67324;Laerm;57667;51.438;5.968;2023-06-24T01:01:43;46.60;44.69;49.12;;
67324;Laerm;57667;51.438;5.968;2023-06-24T01:01:55;46.46;44.87;49.28;;
67324;Laerm;57667;51.438;5.968;2023-06-24T01:02:06;46.52;44.30;49.64;;
67324;Laerm;57667;51.438;5.968;2023-06-24T01:02:16;46.50;44.68;50.20;;